sensor_id;sensor_type;location;lat;lon;timestamp;P1;durP1;ratioP1;P2;durP2;ratioP2
9481;SDS011;4779;48.062;11.672;2024-02-04T00:00:39;3.80;;;3.50;;
9481;SDS011;4779;48.062;11.672;2024-02-04T00:03:09;3.90;;;3.60;;
9481;SDS011;4779;48.062;11.672;2024-02-04T00:05:36;4.20;;;3.80;;
9481;SDS011;4779;48.062;11.672;2024-02-04T00:08:04;4.20;;;3.80;;
9481;SDS011;4779;48.062;11.672;2024-02-04T00:10:31;4.10;;;3.70;;
9481;SDS011;4779;48.062;11.672;2024-02-04T00:12:59;3.60;;;3.30;;
9481;SDS011;4779;48.062;11.672;2024-02-04T00:15:26;3.50;;;3.20;;
9481;SDS011;4779;48.062;11.672;2024-02-04T00:17:54;3.97;;;3.57;;
9481;SDS011;4779;48.062;11.672;2024-02-04T00:20:22;4.20;;;3.60;;
9481;SDS011;4779;48.062;11.672;2024-02-04T00:22:50;4.23;;;3.80;;
9481;SDS011;4779;48.062;11.672;2024-02-04T00:25:17;4.53;;;3.60;;
9481;SDS011;4779;48.062;11.672;2024-02-04T00:27:44;3.60;;;3.30;;
9481;SDS011;4779;48.062;11.672;2024-02-04T00:30:12;4.70;;;3.80;;
9481;SDS011;4779;48.062;11.672;2024-02-04T00:32:39;3.77;;;3.47;;
9481;SDS011;4779;48.062;11.672;2024-02-04T00:35:06;4.23;;;3.83;;
9481;SDS011;4779;48.062;11.672;2024-02-04T00:37:40;3.87;;;3.57;;
9481;SDS011;4779;48.062;11.672;2024-02-04T00:40:08;4.13;;;3.73;;
9481;SDS011;4779;48.062;11.672;2024-02-04T00:42:36;4.47;;;4.07;;
9481;SDS011;4779;48.062;11.672;2024-02-04T00:45:03;4.07;;;3.77;;
9481;SDS011;4779;48.062;11.672;2024-02-04T00:47:30;4.20;;;3.80;;
9481;SDS011;4779;48.062;11.672;2024-02-04T00:49:57;4.57;;;4.17;;
9481;SDS011;4779;48.062;11.672;2024-02-04T00:52:24;5.60;;;4.70;;
9481;SDS011;4779;48.062;11.672;2024-02-04T00:54:53;5.03;;;4.53;;
9481;SDS011;4779;48.062;11.672;2024-02-04T00:57:20;5.13;;;4.63;;
9481;SDS011;4779;48.062;11.672;2024-02-04T00:59:47;5.00;;;4.57;;
9481;SDS011;4779;48.062;11.672;2024-02-04T01:02:15;4.97;;;4.57;;
9481;SDS011;4779;48.062;11.672;2024-02-04T01:04:42;5.00;;;4.53;;
9481;SDS011;4779;48.062;11.672;2024-02-04T01:07:09;5.50;;;4.70;;
9481;SDS011;4779;48.062;11.672;2024-02-04T01:09:36;4.87;;;4.37;;
9481;SDS011;4779;48.062;11.672;2024-02-04T01:12:05;5.07;;;4.57;;
9481;SDS011;4779;48.062;11.672;2024-02-04T01:14:32;5.03;;;4.60;;
9481;SDS011;4779;48.062;11.672;2024-02-04T01:16:59;5.40;;;4.90;;
9481;SDS011;4779;48.062;11.672;2024-02-04T01:19:26;4.70;;;4.30;;
9481;SDS011;4779;48.062;11.672;2024-02-04T01:21:53;4.73;;;4.33;;
9481;SDS011;4779;48.062;11.672;2024-02-04T01:24:20;5.23;;;4.83;;
9481;SDS011;4779;48.062;11.672;2024-02-04T01:26:47;5.77;;;5.17;;
9481;SDS011;4779;48.062;11.672;2024-02-04T01:29:15;5.20;;;4.33;;
9481;SDS011;4779;48.062;11.672;2024-02-04T01:31:42;4.73;;;4.33;;
9481;SDS011;4779;48.062;11.672;2024-02-04T01:34:09;5.20;;;4.70;;
9481;SDS011;4779;48.062;11.672;2024-02-04T01:36:36;5.03;;;4.63;;
9481;SDS011;4779;48.062;11.672;2024-02-04T01:39:03;4.87;;;4.43;;
9481;SDS011;4779;48.062;11.672;2024-02-04T01:41:31;5.67;;;5.17;;
9481;SDS011;4779;48.062;11.672;2024-02-04T01:43:58;5.90;;;5.40;;
9481;SDS011;4779;48.062;11.672;2024-02-04T01:46:26;6.10;;;5.60;;
9481;SDS011;4779;48.062;11.672;2024-02-04T01:48:54;6.13;;;5.53;;
9481;SDS011;4779;48.062;11.672;2024-02-04T01:51:21;6.63;;;5.93;;
9481;SDS011;4779;48.062;11.672;2024-02-04T01:53:48;5.70;;;5.17;;
9481;SDS011;4779;48.062;11.672;2024-02-04T01:56:16;5.90;;;5.40;;
9481;SDS011;4779;48.062;11.672;2024-02-04T01:58:43;5.70;;;5.10;;
9481;SDS011;4779;48.062;11.672;2024-02-04T02:01:12;5.60;;;5.10;;
9481;SDS011;4779;48.062;11.672;2024-02-04T02:03:41;6.03;;;5.43;;
9481;SDS011;4779;48.062;11.672;2024-02-04T02:06:08;6.20;;;5.60;;
9481;SDS011;4779;48.062;11.672;2024-02-04T02:08:36;5.27;;;4.77;;
9481;SDS011;4779;48.062;11.672;2024-02-04T02:11:05;5.93;;;5.33;;
9481;SDS011;4779;48.062;11.672;2024-02-04T02:13:36;5.60;;;5.00;;
9481;SDS011;4779;48.062;11.672;2024-02-04T02:16:07;7.37;;;5.23;;
9481;SDS011;4779;48.062;11.672;2024-02-04T02:18:40;6.00;;;5.20;;
9481;SDS011;4779;48.062;11.672;2024-02-04T02:21:16;5.70;;;5.20;;
9481;SDS011;4779;48.062;11.672;2024-02-04T02:23:54;5.87;;;4.97;;
9481;SDS011;4779;48.062;11.672;2024-02-04T02:26:31;5.93;;;5.33;;
9481;SDS011;4779;48.062;11.672;2024-02-04T02:29:03;5.17;;;4.63;;
9481;SDS011;4779;48.062;11.672;2024-02-04T02:31:30;6.03;;;5.20;;
9481;SDS011;4779;48.062;11.672;2024-02-04T02:33:57;4.73;;;4.33;;
9481;SDS011;4779;48.062;11.672;2024-02-04T02:36:25;5.20;;;4.70;;
9481;SDS011;4779;48.062;11.672;2024-02-04T02:38:58;6.27;;;5.40;;
9481;SDS011;4779;48.062;11.672;2024-02-04T02:41:35;5.87;;;4.77;;
9481;SDS011;4779;48.062;11.672;2024-02-04T02:44:03;5.60;;;5.00;;
9481;SDS011;4779;48.062;11.672;2024-02-04T02:46:32;5.53;;;4.97;;
9481;SDS011;4779;48.062;11.672;2024-02-04T02:49:00;6.13;;;4.73;;
9481;SDS011;4779;48.062;11.672;2024-02-04T02:51:27;5.03;;;4.53;;
9481;SDS011;4779;48.062;11.672;2024-02-04T02:53:54;5.10;;;4.50;;
9481;SDS011;4779;48.062;11.672;2024-02-04T02:56:21;5.47;;;4.80;;
9481;SDS011;4779;48.062;11.672;2024-02-04T02:58:50;5.10;;;4.67;;
9481;SDS011;4779;48.062;11.672;2024-02-04T03:01:17;5.30;;;4.80;;
9481;SDS011;4779;48.062;11.672;2024-02-04T03:03:44;5.77;;;5.27;;
9481;SDS011;4779;48.062;11.672;2024-02-04T03:06:11;5.50;;;4.70;;
9481;SDS011;4779;48.062;11.672;2024-02-04T03:08:38;5.63;;;5.10;;
9481;SDS011;4779;48.062;11.672;2024-02-04T03:11:05;5.27;;;4.77;;
9481;SDS011;4779;48.062;11.672;2024-02-04T03:13:32;6.00;;;4.90;;
9481;SDS011;4779;48.062;11.672;2024-02-04T03:16:01;6.20;;;5.17;;
9481;SDS011;4779;48.062;11.672;2024-02-04T03:18:28;4.60;;;4.20;;
9481;SDS011;4779;48.062;11.672;2024-02-04T03:20:55;5.57;;;5.03;;
9481;SDS011;4779;48.062;11.672;2024-02-04T03:23:22;6.17;;;4.93;;
9481;SDS011;4779;48.062;11.672;2024-02-04T03:25:48;5.20;;;4.70;;
9481;SDS011;4779;48.062;11.672;2024-02-04T03:28:15;4.90;;;4.50;;
9481;SDS011;4779;48.062;11.672;2024-02-04T03:30:44;5.10;;;4.70;;
9481;SDS011;4779;48.062;11.672;2024-02-04T03:33:12;5.37;;;4.87;;
9481;SDS011;4779;48.062;11.672;2024-02-04T03:35:39;5.63;;;5.03;;
9481;SDS011;4779;48.062;11.672;2024-02-04T03:38:06;4.97;;;4.53;;
9481;SDS011;4779;48.062;11.672;2024-02-04T03:40:33;5.20;;;4.63;;
9481;SDS011;4779;48.062;11.672;2024-02-04T03:43:00;5.23;;;4.73;;
9481;SDS011;4779;48.062;11.672;2024-02-04T03:45:28;5.27;;;4.77;;
9481;SDS011;4779;48.062;11.672;2024-02-04T03:47:55;5.17;;;4.67;;
9481;SDS011;4779;48.062;11.672;2024-02-04T03:50:23;5.23;;;4.73;;
9481;SDS011;4779;48.062;11.672;2024-02-04T03:52:50;4.83;;;4.33;;
9481;SDS011;4779;48.062;11.672;2024-02-04T03:55:18;4.97;;;4.47;;
9481;SDS011;4779;48.062;11.672;2024-02-04T03:57:45;5.33;;;4.83;;
9481;SDS011;4779;48.062;11.672;2024-02-04T04:00:12;4.80;;;4.30;;
9481;SDS011;4779;48.062;11.672;2024-02-04T04:02:40;5.27;;;4.77;;
9481;SDS011;4779;48.062;11.672;2024-02-04T04:05:10;5.27;;;4.70;;
9481;SDS011;4779;48.062;11.672;2024-02-04T04:07:39;5.20;;;4.70;;
9481;SDS011;4779;48.062;11.672;2024-02-04T04:10:06;5.27;;;4.30;;
9481;SDS011;4779;48.062;11.672;2024-02-04T04:12:34;5.00;;;4.50;;
9481;SDS011;4779;48.062;11.672;2024-02-04T04:15:01;4.83;;;4.33;;
9481;SDS011;4779;48.062;11.672;2024-02-04T04:17:28;4.77;;;4.10;;
9481;SDS011;4779;48.062;11.672;2024-02-04T04:19:55;4.93;;;4.43;;
9481;SDS011;4779;48.062;11.672;2024-02-04T04:22:22;4.47;;;4.00;;
9481;SDS011;4779;48.062;11.672;2024-02-04T04:24:50;4.90;;;3.93;;
9481;SDS011;4779;48.062;11.672;2024-02-04T04:27:17;4.00;;;3.60;;
9481;SDS011;4779;48.062;11.672;2024-02-04T04:29:44;4.60;;;4.20;;
9481;SDS011;4779;48.062;11.672;2024-02-04T04:32:11;4.37;;;3.77;;
9481;SDS011;4779;48.062;11.672;2024-02-04T04:34:38;5.03;;;3.70;;
9481;SDS011;4779;48.062;11.672;2024-02-04T04:37:05;3.70;;;3.40;;
9481;SDS011;4779;48.062;11.672;2024-02-04T04:39:32;3.77;;;3.37;;
9481;SDS011;4779;48.062;11.672;2024-02-04T04:42:01;4.50;;;3.40;;
9481;SDS011;4779;48.062;11.672;2024-02-04T04:44:28;3.50;;;3.03;;
9481;SDS011;4779;48.062;11.672;2024-02-04T04:46:55;5.13;;;3.33;;
9481;SDS011;4779;48.062;11.672;2024-02-04T04:49:22;3.17;;;2.87;;
9481;SDS011;4779;48.062;11.672;2024-02-04T04:51:49;3.23;;;2.93;;
9481;SDS011;4779;48.062;11.672;2024-02-04T04:54:16;3.30;;;2.70;;
9481;SDS011;4779;48.062;11.672;2024-02-04T04:56:43;3.67;;;2.83;;
9481;SDS011;4779;48.062;11.672;2024-02-04T04:59:11;2.80;;;2.60;;
9481;SDS011;4779;48.062;11.672;2024-02-04T05:01:44;2.53;;;2.33;;
9481;SDS011;4779;48.062;11.672;2024-02-04T05:04:11;2.90;;;2.60;;
9481;SDS011;4779;48.062;11.672;2024-02-04T05:06:38;2.50;;;2.30;;
9481;SDS011;4779;48.062;11.672;2024-02-04T05:09:05;3.77;;;2.50;;
9481;SDS011;4779;48.062;11.672;2024-02-04T05:11:32;2.73;;;2.53;;
9481;SDS011;4779;48.062;11.672;2024-02-04T05:14:02;2.17;;;1.97;;
9481;SDS011;4779;48.062;11.672;2024-02-04T05:16:31;2.63;;;2.43;;
9481;SDS011;4779;48.062;11.672;2024-02-04T05:18:58;3.43;;;2.20;;
9481;SDS011;4779;48.062;11.672;2024-02-04T05:21:25;5.80;;;2.67;;
9481;SDS011;4779;48.062;11.672;2024-02-04T05:23:52;2.50;;;2.17;;
9481;SDS011;4779;48.062;11.672;2024-02-04T05:26:19;3.20;;;2.37;;
9481;SDS011;4779;48.062;11.672;2024-02-04T05:28:46;5.03;;;3.70;;
9481;SDS011;4779;48.062;11.672;2024-02-04T05:31:13;7.27;;;3.40;;
9481;SDS011;4779;48.062;11.672;2024-02-04T05:33:41;3.27;;;2.90;;
9481;SDS011;4779;48.062;11.672;2024-02-04T05:36:08;3.80;;;2.57;;
9481;SDS011;4779;48.062;11.672;2024-02-04T05:38:35;3.10;;;2.80;;
9481;SDS011;4779;48.062;11.672;2024-02-04T05:41:02;3.77;;;2.30;;
9481;SDS011;4779;48.062;11.672;2024-02-04T05:43:29;5.20;;;2.50;;
9481;SDS011;4779;48.062;11.672;2024-02-04T05:45:56;5.27;;;2.80;;
9481;SDS011;4779;48.062;11.672;2024-02-04T05:48:23;4.20;;;2.90;;
9481;SDS011;4779;48.062;11.672;2024-02-04T05:50:51;3.30;;;2.87;;
9481;SDS011;4779;48.062;11.672;2024-02-04T05:53:18;9.40;;;3.33;;
9481;SDS011;4779;48.062;11.672;2024-02-04T05:55:46;3.87;;;2.77;;
9481;SDS011;4779;48.062;11.672;2024-02-04T05:58:13;3.60;;;3.30;;
9481;SDS011;4779;48.062;11.672;2024-02-04T06:00:40;3.33;;;3.00;;
9481;SDS011;4779;48.062;11.672;2024-02-04T06:03:07;3.70;;;2.80;;
9481;SDS011;4779;48.062;11.672;2024-02-04T06:05:34;4.97;;;3.33;;
9481;SDS011;4779;48.062;11.672;2024-02-04T06:08:02;5.03;;;3.30;;
9481;SDS011;4779;48.062;11.672;2024-02-04T06:10:30;3.37;;;3.00;;
9481;SDS011;4779;48.062;11.672;2024-02-04T06:12:57;4.10;;;3.00;;
9481;SDS011;4779;48.062;11.672;2024-02-04T06:15:24;3.60;;;2.80;;
9481;SDS011;4779;48.062;11.672;2024-02-04T06:17:51;4.33;;;3.17;;
9481;SDS011;4779;48.062;11.672;2024-02-04T06:20:18;6.27;;;3.33;;
9481;SDS011;4779;48.062;11.672;2024-02-04T06:22:45;5.03;;;3.30;;
9481;SDS011;4779;48.062;11.672;2024-02-04T06:25:14;5.60;;;3.50;;
9481;SDS011;4779;48.062;11.672;2024-02-04T06:27:42;6.27;;;3.73;;
9481;SDS011;4779;48.062;11.672;2024-02-04T06:30:16;4.43;;;3.47;;
9481;SDS011;4779;48.062;11.672;2024-02-04T06:32:47;5.07;;;3.50;;
9481;SDS011;4779;48.062;11.672;2024-02-04T06:35:14;3.30;;;2.80;;
9481;SDS011;4779;48.062;11.672;2024-02-04T06:37:41;4.30;;;3.50;;
9481;SDS011;4779;48.062;11.672;2024-02-04T06:40:09;3.87;;;3.57;;
9481;SDS011;4779;48.062;11.672;2024-02-04T06:42:38;6.70;;;3.80;;
9481;SDS011;4779;48.062;11.672;2024-02-04T06:45:05;3.20;;;2.90;;
9481;SDS011;4779;48.062;11.672;2024-02-04T06:47:33;3.67;;;2.83;;
9481;SDS011;4779;48.062;11.672;2024-02-04T06:50:00;3.77;;;3.07;;
9481;SDS011;4779;48.062;11.672;2024-02-04T06:52:31;3.67;;;2.93;;
9481;SDS011;4779;48.062;11.672;2024-02-04T06:55:17;4.40;;;3.10;;
9481;SDS011;4779;48.062;11.672;2024-02-04T06:57:52;4.13;;;3.53;;
9481;SDS011;4779;48.062;11.672;2024-02-04T07:00:19;4.67;;;3.90;;
9481;SDS011;4779;48.062;11.672;2024-02-04T07:02:47;5.37;;;3.90;;
9481;SDS011;4779;48.062;11.672;2024-02-04T07:05:14;5.47;;;4.03;;
9481;SDS011;4779;48.062;11.672;2024-02-04T07:07:41;5.47;;;3.93;;
9481;SDS011;4779;48.062;11.672;2024-02-04T07:10:09;5.10;;;4.60;;
9481;SDS011;4779;48.062;11.672;2024-02-04T07:12:36;4.97;;;3.97;;
9481;SDS011;4779;48.062;11.672;2024-02-04T07:15:05;6.10;;;4.50;;
9481;SDS011;4779;48.062;11.672;2024-02-04T07:17:33;5.20;;;4.13;;
9481;SDS011;4779;48.062;11.672;2024-02-04T07:20:01;6.03;;;4.00;;
9481;SDS011;4779;48.062;11.672;2024-02-04T07:22:28;5.97;;;3.90;;
9481;SDS011;4779;48.062;11.672;2024-02-04T07:24:55;6.93;;;4.57;;
9481;SDS011;4779;48.062;11.672;2024-02-04T07:27:22;4.77;;;4.20;;
9481;SDS011;4779;48.062;11.672;2024-02-04T07:29:49;5.87;;;3.90;;
9481;SDS011;4779;48.062;11.672;2024-02-04T07:32:17;4.97;;;4.47;;
9481;SDS011;4779;48.062;11.672;2024-02-04T07:34:44;6.83;;;4.70;;
9481;SDS011;4779;48.062;11.672;2024-02-04T07:37:11;7.03;;;4.50;;
9481;SDS011;4779;48.062;11.672;2024-02-04T07:39:39;4.90;;;4.10;;
9481;SDS011;4779;48.062;11.672;2024-02-04T07:42:06;5.07;;;4.50;;
9481;SDS011;4779;48.062;11.672;2024-02-04T07:44:33;9.70;;;4.90;;
9481;SDS011;4779;48.062;11.672;2024-02-04T07:47:00;7.33;;;4.83;;
9481;SDS011;4779;48.062;11.672;2024-02-04T07:49:28;5.33;;;4.57;;
9481;SDS011;4779;48.062;11.672;2024-02-04T07:51:55;7.60;;;5.10;;
9481;SDS011;4779;48.062;11.672;2024-02-04T07:54:22;6.73;;;4.90;;
9481;SDS011;4779;48.062;11.672;2024-02-04T07:56:51;8.27;;;4.93;;
9481;SDS011;4779;48.062;11.672;2024-02-04T07:59:18;9.90;;;5.47;;
9481;SDS011;4779;48.062;11.672;2024-02-04T08:01:45;9.10;;;5.53;;
9481;SDS011;4779;48.062;11.672;2024-02-04T08:04:12;7.47;;;5.10;;
9481;SDS011;4779;48.062;11.672;2024-02-04T08:06:41;8.60;;;5.00;;
9481;SDS011;4779;48.062;11.672;2024-02-04T08:09:08;8.50;;;5.80;;
9481;SDS011;4779;48.062;11.672;2024-02-04T08:11:36;10.23;;;5.97;;
9481;SDS011;4779;48.062;11.672;2024-02-04T08:14:03;8.83;;;5.50;;
9481;SDS011;4779;48.062;11.672;2024-02-04T08:16:30;7.30;;;5.20;;
9481;SDS011;4779;48.062;11.672;2024-02-04T08:18:57;6.67;;;5.23;;
9481;SDS011;4779;48.062;11.672;2024-02-04T08:21:24;9.47;;;5.60;;
9481;SDS011;4779;48.062;11.672;2024-02-04T08:23:52;8.23;;;4.90;;
9481;SDS011;4779;48.062;11.672;2024-02-04T08:26:20;6.53;;;4.60;;
9481;SDS011;4779;48.062;11.672;2024-02-04T08:28:47;8.00;;;5.03;;
9481;SDS011;4779;48.062;11.672;2024-02-04T08:31:20;10.77;;;4.47;;
9481;SDS011;4779;48.062;11.672;2024-02-04T08:33:47;9.27;;;5.10;;
9481;SDS011;4779;48.062;11.672;2024-02-04T08:36:14;8.57;;;4.47;;
9481;SDS011;4779;48.062;11.672;2024-02-04T08:38:41;10.63;;;4.70;;
9481;SDS011;4779;48.062;11.672;2024-02-04T08:41:09;9.17;;;3.97;;
9481;SDS011;4779;48.062;11.672;2024-02-04T08:43:36;7.17;;;4.50;;
9481;SDS011;4779;48.062;11.672;2024-02-04T08:46:04;8.47;;;4.70;;
9481;SDS011;4779;48.062;11.672;2024-02-04T08:48:32;10.57;;;4.63;;
9481;SDS011;4779;48.062;11.672;2024-02-04T08:50:59;10.37;;;5.47;;
9481;SDS011;4779;48.062;11.672;2024-02-04T08:53:25;6.03;;;4.37;;
9481;SDS011;4779;48.062;11.672;2024-02-04T08:55:56;8.77;;;4.63;;
9481;SDS011;4779;48.062;11.672;2024-02-04T08:58:27;7.43;;;4.60;;
9481;SDS011;4779;48.062;11.672;2024-02-04T09:00:57;8.47;;;5.47;;
9481;SDS011;4779;48.062;11.672;2024-02-04T09:03:24;7.27;;;4.80;;
9481;SDS011;4779;48.062;11.672;2024-02-04T09:05:51;6.87;;;4.60;;
9481;SDS011;4779;48.062;11.672;2024-02-04T09:08:18;5.53;;;4.37;;
9481;SDS011;4779;48.062;11.672;2024-02-04T09:10:45;5.87;;;4.13;;
9481;SDS011;4779;48.062;11.672;2024-02-04T09:13:12;7.27;;;4.10;;
9481;SDS011;4779;48.062;11.672;2024-02-04T09:15:40;9.80;;;4.77;;
9481;SDS011;4779;48.062;11.672;2024-02-04T09:18:08;8.37;;;4.87;;
9481;SDS011;4779;48.062;11.672;2024-02-04T09:20:35;6.63;;;4.20;;
9481;SDS011;4779;48.062;11.672;2024-02-04T09:23:02;9.40;;;4.40;;
9481;SDS011;4779;48.062;11.672;2024-02-04T09:25:30;7.57;;;4.30;;
9481;SDS011;4779;48.062;11.672;2024-02-04T09:27:57;7.90;;;4.30;;
9481;SDS011;4779;48.062;11.672;2024-02-04T09:30:27;8.97;;;4.30;;
9481;SDS011;4779;48.062;11.672;2024-02-04T09:32:55;7.13;;;4.83;;
9481;SDS011;4779;48.062;11.672;2024-02-04T09:35:22;7.17;;;4.43;;
9481;SDS011;4779;48.062;11.672;2024-02-04T09:37:49;7.43;;;4.23;;
9481;SDS011;4779;48.062;11.672;2024-02-04T09:40:16;7.40;;;4.10;;
9481;SDS011;4779;48.062;11.672;2024-02-04T09:42:44;6.90;;;4.30;;
9481;SDS011;4779;48.062;11.672;2024-02-04T09:45:13;6.30;;;4.50;;
9481;SDS011;4779;48.062;11.672;2024-02-04T09:47:45;11.43;;;4.40;;
9481;SDS011;4779;48.062;11.672;2024-02-04T09:50:14;11.03;;;5.23;;
9481;SDS011;4779;48.062;11.672;2024-02-04T09:52:41;7.47;;;4.50;;
9481;SDS011;4779;48.062;11.672;2024-02-04T09:55:14;5.93;;;4.30;;
9481;SDS011;4779;48.062;11.672;2024-02-04T09:57:42;8.67;;;4.70;;
9481;SDS011;4779;48.062;11.672;2024-02-04T10:00:11;7.17;;;4.30;;
9481;SDS011;4779;48.062;11.672;2024-02-04T10:02:40;5.80;;;3.80;;
9481;SDS011;4779;48.062;11.672;2024-02-04T10:05:08;4.73;;;4.13;;
9481;SDS011;4779;48.062;11.672;2024-02-04T10:07:37;6.03;;;4.47;;
9481;SDS011;4779;48.062;11.672;2024-02-04T10:10:05;6.50;;;4.33;;
9481;SDS011;4779;48.062;11.672;2024-02-04T10:12:34;6.23;;;4.23;;
9481;SDS011;4779;48.062;11.672;2024-02-04T10:15:03;9.87;;;5.93;;
9481;SDS011;4779;48.062;11.672;2024-02-04T10:17:31;11.30;;;5.60;;
9481;SDS011;4779;48.062;11.672;2024-02-04T10:20:01;7.87;;;4.17;;
9481;SDS011;4779;48.062;11.672;2024-02-04T10:22:29;8.03;;;4.80;;
9481;SDS011;4779;48.062;11.672;2024-02-04T10:25:06;6.40;;;4.13;;
9481;SDS011;4779;48.062;11.672;2024-02-04T10:27:34;5.83;;;4.17;;
9481;SDS011;4779;48.062;11.672;2024-02-04T10:30:01;6.73;;;4.33;;
9481;SDS011;4779;48.062;11.672;2024-02-04T10:32:29;6.63;;;4.37;;
9481;SDS011;4779;48.062;11.672;2024-02-04T10:34:57;6.30;;;3.80;;
9481;SDS011;4779;48.062;11.672;2024-02-04T10:37:24;7.27;;;3.73;;
9481;SDS011;4779;48.062;11.672;2024-02-04T10:39:51;5.67;;;3.50;;
9481;SDS011;4779;48.062;11.672;2024-02-04T10:42:21;6.50;;;3.47;;
9481;SDS011;4779;48.062;11.672;2024-02-04T10:44:51;6.30;;;3.70;;
9481;SDS011;4779;48.062;11.672;2024-02-04T10:47:22;6.63;;;3.13;;
9481;SDS011;4779;48.062;11.672;2024-02-04T10:49:50;4.90;;;3.37;;
9481;SDS011;4779;48.062;11.672;2024-02-04T10:52:19;5.40;;;3.47;;
9481;SDS011;4779;48.062;11.672;2024-02-04T10:54:48;6.43;;;3.20;;
9481;SDS011;4779;48.062;11.672;2024-02-04T10:57:20;4.50;;;3.07;;
9481;SDS011;4779;48.062;11.672;2024-02-04T10:59:59;4.43;;;3.13;;
9481;SDS011;4779;48.062;11.672;2024-02-04T11:02:29;6.63;;;3.47;;
9481;SDS011;4779;48.062;11.672;2024-02-04T11:05:00;4.17;;;3.00;;
9481;SDS011;4779;48.062;11.672;2024-02-04T11:07:31;4.40;;;2.90;;
9481;SDS011;4779;48.062;11.672;2024-02-04T11:10:02;3.27;;;2.13;;
9481;SDS011;4779;48.062;11.672;2024-02-04T11:12:32;3.80;;;2.30;;
9481;SDS011;4779;48.062;11.672;2024-02-04T11:15:02;2.93;;;2.47;;
9481;SDS011;4779;48.062;11.672;2024-02-04T11:17:39;6.00;;;2.40;;
9481;SDS011;4779;48.062;11.672;2024-02-04T11:20:33;2.90;;;1.97;;
9481;SDS011;4779;48.062;11.672;2024-02-04T11:23:19;3.63;;;2.03;;
9481;SDS011;4779;48.062;11.672;2024-02-04T11:25:54;2.90;;;1.75;;
9481;SDS011;4779;48.062;11.672;2024-02-04T11:28:24;2.72;;;1.70;;
9481;SDS011;4779;48.062;11.672;2024-02-04T11:30:55;2.13;;;1.50;;
9481;SDS011;4779;48.062;11.672;2024-02-04T11:33:22;3.30;;;1.57;;
9481;SDS011;4779;48.062;11.672;2024-02-04T11:35:59;3.45;;;2.00;;
9481;SDS011;4779;48.062;11.672;2024-02-04T11:38:30;2.47;;;1.63;;
9481;SDS011;4779;48.062;11.672;2024-02-04T11:41:04;2.47;;;2.00;;
9481;SDS011;4779;48.062;11.672;2024-02-04T11:43:33;2.73;;;1.70;;
9481;SDS011;4779;48.062;11.672;2024-02-04T11:46:02;3.08;;;1.90;;
9481;SDS011;4779;48.062;11.672;2024-02-04T11:48:30;1.93;;;1.77;;
9481;SDS011;4779;48.062;11.672;2024-02-04T11:50:59;2.70;;;1.65;;
9481;SDS011;4779;48.062;11.672;2024-02-04T11:53:26;2.07;;;1.53;;
9481;SDS011;4779;48.062;11.672;2024-02-04T11:55:57;3.43;;;1.73;;
9481;SDS011;4779;48.062;11.672;2024-02-04T11:58:25;2.50;;;1.53;;
9481;SDS011;4779;48.062;11.672;2024-02-04T12:00:55;4.77;;;1.90;;
9481;SDS011;4779;48.062;11.672;2024-02-04T12:03:29;4.97;;;1.90;;
9481;SDS011;4779;48.062;11.672;2024-02-04T12:05:57;2.80;;;1.63;;
9481;SDS011;4779;48.062;11.672;2024-02-04T12:08:25;2.30;;;1.57;;
9481;SDS011;4779;48.062;11.672;2024-02-04T12:10:53;2.03;;;1.80;;
9481;SDS011;4779;48.062;11.672;2024-02-04T12:13:21;5.00;;;2.00;;
9481;SDS011;4779;48.062;11.672;2024-02-04T12:15:48;7.00;;;2.00;;
9481;SDS011;4779;48.062;11.672;2024-02-04T12:18:17;2.90;;;1.43;;
9481;SDS011;4779;48.062;11.672;2024-02-04T12:20:45;2.40;;;1.63;;
9481;SDS011;4779;48.062;11.672;2024-02-04T12:23:14;4.67;;;1.67;;
9481;SDS011;4779;48.062;11.672;2024-02-04T12:25:41;2.90;;;1.73;;
9481;SDS011;4779;48.062;11.672;2024-02-04T12:28:08;2.97;;;1.70;;
9481;SDS011;4779;48.062;11.672;2024-02-04T12:30:35;3.03;;;1.90;;
9481;SDS011;4779;48.062;11.672;2024-02-04T12:33:03;3.23;;;1.80;;
9481;SDS011;4779;48.062;11.672;2024-02-04T12:35:33;3.30;;;1.60;;
9481;SDS011;4779;48.062;11.672;2024-02-04T12:38:00;3.63;;;1.83;;
9481;SDS011;4779;48.062;11.672;2024-02-04T12:40:28;5.10;;;2.40;;
9481;SDS011;4779;48.062;11.672;2024-02-04T12:42:56;2.50;;;1.60;;
9481;SDS011;4779;48.062;11.672;2024-02-04T12:45:24;3.37;;;1.57;;
9481;SDS011;4779;48.062;11.672;2024-02-04T12:47:52;4.30;;;1.70;;
9481;SDS011;4779;48.062;11.672;2024-02-04T12:50:20;3.70;;;1.90;;
9481;SDS011;4779;48.062;11.672;2024-02-04T12:52:50;3.10;;;1.50;;
9481;SDS011;4779;48.062;11.672;2024-02-04T12:55:27;3.03;;;1.50;;
9481;SDS011;4779;48.062;11.672;2024-02-04T12:58:03;4.23;;;1.80;;
9481;SDS011;4779;48.062;11.672;2024-02-04T13:00:31;2.77;;;1.60;;
9481;SDS011;4779;48.062;11.672;2024-02-04T13:02:58;2.40;;;1.47;;
9481;SDS011;4779;48.062;11.672;2024-02-04T13:05:26;4.67;;;2.20;;
9481;SDS011;4779;48.062;11.672;2024-02-04T13:07:55;3.27;;;1.70;;
9481;SDS011;4779;48.062;11.672;2024-02-04T13:10:23;6.30;;;1.93;;
9481;SDS011;4779;48.062;11.672;2024-02-04T13:13:00;3.70;;;1.60;;
9481;SDS011;4779;48.062;11.672;2024-02-04T13:15:28;3.43;;;1.70;;
9481;SDS011;4779;48.062;11.672;2024-02-04T13:17:56;3.83;;;1.63;;
9481;SDS011;4779;48.062;11.672;2024-02-04T13:20:24;4.43;;;2.00;;
9481;SDS011;4779;48.062;11.672;2024-02-04T13:22:51;4.57;;;1.80;;
9481;SDS011;4779;48.062;11.672;2024-02-04T13:25:20;1.80;;;1.50;;
9481;SDS011;4779;48.062;11.672;2024-02-04T13:27:47;4.80;;;1.70;;
9481;SDS011;4779;48.062;11.672;2024-02-04T13:30:15;5.90;;;1.77;;
9481;SDS011;4779;48.062;11.672;2024-02-04T13:32:42;4.87;;;2.20;;
9481;SDS011;4779;48.062;11.672;2024-02-04T13:35:10;3.40;;;2.03;;
9481;SDS011;4779;48.062;11.672;2024-02-04T13:37:38;4.80;;;1.73;;
9481;SDS011;4779;48.062;11.672;2024-02-04T13:40:05;2.63;;;1.60;;
9481;SDS011;4779;48.062;11.672;2024-02-04T13:42:35;4.50;;;1.70;;
9481;SDS011;4779;48.062;11.672;2024-02-04T13:45:02;2.57;;;1.50;;
9481;SDS011;4779;48.062;11.672;2024-02-04T13:47:30;5.53;;;1.70;;
9481;SDS011;4779;48.062;11.672;2024-02-04T13:49:57;4.47;;;1.67;;
9481;SDS011;4779;48.062;11.672;2024-02-04T13:52:24;3.60;;;1.60;;
9481;SDS011;4779;48.062;11.672;2024-02-04T13:54:51;2.50;;;1.53;;
9481;SDS011;4779;48.062;11.672;2024-02-04T13:57:18;4.17;;;2.07;;
9481;SDS011;4779;48.062;11.672;2024-02-04T13:59:48;3.43;;;1.53;;
9481;SDS011;4779;48.062;11.672;2024-02-04T14:02:15;4.90;;;1.37;;
9481;SDS011;4779;48.062;11.672;2024-02-04T14:04:42;3.50;;;1.83;;
9481;SDS011;4779;48.062;11.672;2024-02-04T14:07:09;2.73;;;1.57;;
9481;SDS011;4779;48.062;11.672;2024-02-04T14:09:39;4.03;;;1.80;;
9481;SDS011;4779;48.062;11.672;2024-02-04T14:12:06;2.60;;;1.60;;
9481;SDS011;4779;48.062;11.672;2024-02-04T14:14:33;2.30;;;1.33;;
9481;SDS011;4779;48.062;11.672;2024-02-04T14:17:02;3.77;;;1.50;;
9481;SDS011;4779;48.062;11.672;2024-02-04T14:19:30;2.63;;;1.47;;
9481;SDS011;4779;48.062;11.672;2024-02-04T14:21:57;4.30;;;1.60;;
9481;SDS011;4779;48.062;11.672;2024-02-04T14:24:24;5.40;;;1.40;;
9481;SDS011;4779;48.062;11.672;2024-02-04T14:26:55;1.73;;;1.23;;
9481;SDS011;4779;48.062;11.672;2024-02-04T14:29:23;2.53;;;1.57;;
9481;SDS011;4779;48.062;11.672;2024-02-04T14:31:51;3.30;;;1.30;;
9481;SDS011;4779;48.062;11.672;2024-02-04T14:34:20;2.77;;;1.20;;
9481;SDS011;4779;48.062;11.672;2024-02-04T14:36:47;2.67;;;1.40;;
9481;SDS011;4779;48.062;11.672;2024-02-04T14:39:14;3.33;;;1.80;;
9481;SDS011;4779;48.062;11.672;2024-02-04T14:41:41;2.70;;;1.40;;
9481;SDS011;4779;48.062;11.672;2024-02-04T14:44:08;3.27;;;1.40;;
9481;SDS011;4779;48.062;11.672;2024-02-04T14:46:36;2.03;;;1.20;;
9481;SDS011;4779;48.062;11.672;2024-02-04T14:49:03;4.00;;;1.40;;
9481;SDS011;4779;48.062;11.672;2024-02-04T14:51:32;3.23;;;1.70;;
9481;SDS011;4779;48.062;11.672;2024-02-04T14:54:01;2.03;;;0.90;;
9481;SDS011;4779;48.062;11.672;2024-02-04T14:56:28;3.80;;;1.60;;
9481;SDS011;4779;48.062;11.672;2024-02-04T14:58:55;2.80;;;1.20;;
9481;SDS011;4779;48.062;11.672;2024-02-04T15:01:22;2.53;;;1.30;;
9481;SDS011;4779;48.062;11.672;2024-02-04T15:03:49;1.87;;;1.13;;
9481;SDS011;4779;48.062;11.672;2024-02-04T15:06:16;3.53;;;1.50;;